Time;durP1;ratioP1;P1;durP2;ratioP2;P2;SDS_P1;SDS_P2;PMS_P1;PMS_P2;Temp;Humidity;BMP_temperature;BMP_pressure;BME280_temperature;BME280_humidity;BME280_pressure;Samples;Min_cycle;Max_cycle;Signal;HPM_P1;HPM_P2
2024/03/12 00:01:55;;;;;;;1.63;0.87;;;;;;;;;;4341923;32;317472;-70
2024/03/12 00:04:22;;;;;;;1.10;1.00;;;;;;;;;;4350199;32;317179;-69
2024/03/12 00:06:49;;;;;;;2.27;1.00;;;;;;;;;;4341538;32;317103;-72
2024/03/12 00:09:17;;;;;;;2.83;1.00;;;;;;;;;;4351502;32;317083;-70
2024/03/12 00:11:45;;;;;;;2.30;0.87;;;;;;;;;;4350963;32;317125;-69
2024/03/12 00:14:14;;;;;;;1.20;1.00;;;;;;;;;;4336973;32;416123;-69
2024/03/12 00:16:41;;;;;;;1.47;1.13;;;;;;;;;;4351340;32;317196;-69
2024/03/12 00:19:09;;;;;;;3.30;1.40;;;;;;;;;;4341143;32;317269;-69
2024/03/12 00:21:36;;;;;;;4.27;2.27;;;;;;;;;;4352234;32;317075;-69
2024/03/12 00:24:04;;;;;;;5.97;2.53;;;;;;;;;;4337762;32;317627;-69
2024/03/12 00:26:32;;;;;;;5.03;2.73;;;;;;;;;;4351980;32;316339;-70
2024/03/12 00:29:01;;;;;;;4.50;2.30;;;;;;;;;;4341409;32;318265;-70
2024/03/12 00:31:28;;;;;;;3.00;1.57;;;;;;;;;;4352115;32;317428;-69
2024/03/12 00:33:57;;;;;;;3.23;1.73;;;;;;;;;;4341895;32;317287;-72
2024/03/12 00:36:28;;;;;;;4.47;1.90;;;;;;;;;;4353641;32;317525;-69
2024/03/12 00:38:55;;;;;;;5.70;1.90;;;;;;;;;;4345549;32;317337;-71
2024/03/12 00:41:22;;;;;;;3.47;1.87;;;;;;;;;;4354650;32;316713;-69
2024/03/12 00:43:52;;;;;;;3.60;1.70;;;;;;;;;;4344060;32;317305;-69
2024/03/12 00:46:20;;;;;;;5.90;1.87;;;;;;;;;;4351860;32;317289;-69
2024/03/12 00:48:48;;;;;;;3.87;2.40;;;;;;;;;;4344095;32;317475;-71
2024/03/12 00:51:18;;;;;;;5.40;3.40;;;;;;;;;;4353441;32;316699;-69
2024/03/12 00:53:45;;;;;;;4.57;2.30;;;;;;;;;;4347854;32;317256;-69
2024/03/12 00:56:15;;;;;;;4.43;2.90;;;;;;;;;;4351923;32;316414;-69
2024/03/12 00:58:42;;;;;;;3.03;1.93;;;;;;;;;;4353922;32;317611;-70
2024/03/12 01:01:14;;;;;;;4.17;2.00;;;;;;;;;;4343802;32;316503;-69
2024/03/12 01:03:46;;;;;;;2.47;2.03;;;;;;;;;;4354929;32;317083;-69
2024/03/12 01:06:13;;;;;;;2.90;1.63;;;;;;;;;;4338856;32;416488;-73
2024/03/12 01:08:41;;;;;;;2.50;1.70;;;;;;;;;;4354662;32;317669;-69
2024/03/12 01:11:09;;;;;;;1.47;1.30;;;;;;;;;;4344933;32;317672;-69
2024/03/12 01:13:36;;;;;;;2.27;1.47;;;;;;;;;;4354351;32;317421;-69
2024/03/12 01:16:03;;;;;;;2.80;1.77;;;;;;;;;;4341157;32;317905;-70
2024/03/12 01:18:31;;;;;;;2.53;1.60;;;;;;;;;;4353341;32;317371;-69
2024/03/12 01:20:59;;;;;;;2.87;1.70;;;;;;;;;;4344626;32;316675;-69
2024/03/12 01:23:26;;;;;;;4.50;2.60;;;;;;;;;;4354548;32;317617;-69
2024/03/12 01:25:53;;;;;;;3.53;2.03;;;;;;;;;;4344509;32;317790;-69
2024/03/12 01:28:22;;;;;;;4.10;1.93;;;;;;;;;;4341759;32;316584;-69
2024/03/12 01:30:49;;;;;;;3.00;1.63;;;;;;;;;;4351453;32;317225;-71
2024/03/12 01:33:18;;;;;;;2.27;1.43;;;;;;;;;;4344329;32;317334;-70
2024/03/12 01:35:46;;;;;;;3.67;2.20;;;;;;;;;;4352835;32;317181;-69
2024/03/12 01:38:15;;;;;;;4.87;2.93;;;;;;;;;;4340902;32;345446;-71
2024/03/12 01:40:41;;;;;;;5.70;3.23;;;;;;;;;;4349737;32;316669;-69
2024/03/12 01:43:12;;;;;;;6.87;3.43;;;;;;;;;;4353755;32;316986;-71
2024/03/12 01:45:39;;;;;;;4.33;2.17;;;;;;;;;;4341633;32;417248;-70
2024/03/12 01:48:08;;;;;;;4.77;2.03;;;;;;;;;;4352156;32;317202;-69
2024/03/12 01:50:36;;;;;;;4.53;2.53;;;;;;;;;;4341745;32;317456;-69
2024/03/12 01:53:05;;;;;;;4.93;2.23;;;;;;;;;;4353902;32;317376;-70
2024/03/12 01:55:34;;;;;;;4.17;2.00;;;;;;;;;;4344076;32;317422;-71
2024/03/12 01:58:01;;;;;;;4.67;2.13;;;;;;;;;;4354113;32;317712;-71
2024/03/12 02:00:29;;;;;;;2.13;1.63;;;;;;;;;;4340776;32;353795;-69
2024/03/12 02:02:55;;;;;;;3.20;1.90;;;;;;;;;;4352721;32;317231;-70
2024/03/12 02:05:23;;;;;;;4.13;2.10;;;;;;;;;;4342968;32;317293;-69
2024/03/12 02:07:51;;;;;;;4.23;2.50;;;;;;;;;;4352907;32;317448;-69
2024/03/12 02:10:19;;;;;;;3.63;1.70;;;;;;;;;;4341649;32;338784;-71
2024/03/12 02:12:48;;;;;;;3.27;1.77;;;;;;;;;;4351182;32;317411;-69
2024/03/12 02:15:17;;;;;;;4.07;1.60;;;;;;;;;;4343300;32;316503;-69
2024/03/12 02:17:44;;;;;;;3.43;2.10;;;;;;;;;;4353506;32;317232;-69
2024/03/12 02:20:12;;;;;;;5.67;1.60;;;;;;;;;;4353551;32;317963;-71
2024/03/12 02:22:40;;;;;;;3.17;2.07;;;;;;;;;;4338051;32;416615;-70
2024/03/12 02:25:10;;;;;;;3.10;2.10;;;;;;;;;;4352437;32;317404;-70
2024/03/12 02:27:37;;;;;;;2.30;1.83;;;;;;;;;;4341929;32;317758;-70
2024/03/12 02:30:04;;;;;;;3.10;2.10;;;;;;;;;;4350632;32;316274;-70
2024/03/12 02:32:32;;;;;;;5.67;3.30;;;;;;;;;;4339963;32;317262;-69
2024/03/12 02:34:59;;;;;;;3.57;2.77;;;;;;;;;;4353267;32;317253;-69
2024/03/12 02:37:26;;;;;;;6.20;3.23;;;;;;;;;;4342327;32;317348;-69
2024/03/12 02:39:52;;;;;;;4.87;2.80;;;;;;;;;;4352370;32;317378;-70
2024/03/12 02:42:21;;;;;;;3.83;2.70;;;;;;;;;;4342380;32;353981;-71
2024/03/12 02:44:47;;;;;;;3.97;2.43;;;;;;;;;;4349193;32;317307;-69
2024/03/12 02:47:14;;;;;;;4.63;2.47;;;;;;;;;;4343547;32;317466;-69
2024/03/12 02:49:41;;;;;;;4.63;2.83;;;;;;;;;;4353157;32;317193;-69
2024/03/12 02:52:10;;;;;;;6.93;4.03;;;;;;;;;;4351944;32;317173;-69
2024/03/12 02:54:36;;;;;;;4.30;3.20;;;;;;;;;;4339510;32;316992;-70
2024/03/12 02:57:03;;;;;;;14.73;9.10;;;;;;;;;;4337998;32;325954;-69
2024/03/12 02:59:32;;;;;;;11.03;7.33;;;;;;;;;;4342758;32;318467;-69
2024/03/12 03:01:59;;;;;;;10.57;6.97;;;;;;;;;;4352504;32;318826;-69
2024/03/12 03:04:26;;;;;;;15.03;6.80;;;;;;;;;;4340462;32;318458;-69
2024/03/12 03:06:55;;;;;;;14.03;7.73;;;;;;;;;;4351728;32;318607;-69
2024/03/12 03:09:21;;;;;;;9.50;6.30;;;;;;;;;;4341200;32;350803;-69
2024/03/12 03:11:48;;;;;;;5.67;3.40;;;;;;;;;;4352390;32;316787;-68
2024/03/12 03:14:15;;;;;;;5.30;1.80;;;;;;;;;;4342477;32;317763;-68
2024/03/12 03:16:43;;;;;;;2.73;1.90;;;;;;;;;;4348702;32;317454;-68
2024/03/12 03:19:10;;;;;;;7.63;4.40;;;;;;;;;;4352737;32;317601;-70
2024/03/12 03:21:37;;;;;;;13.43;7.87;;;;;;;;;;4342717;32;317541;-69
2024/03/12 03:24:05;;;;;;;3.43;2.70;;;;;;;;;;4351946;32;318742;-69
2024/03/12 03:26:32;;;;;;;5.57;3.43;;;;;;;;;;4340274;32;316848;-69
2024/03/12 03:28:59;;;;;;;9.77;4.13;;;;;;;;;;4352733;32;317589;-69
2024/03/12 03:31:26;;;;;;;13.70;7.77;;;;;;;;;;4341465;32;317351;-69
2024/03/12 03:33:54;;;;;;;9.43;5.20;;;;;;;;;;4351577;32;318303;-70
2024/03/12 03:36:21;;;;;;;6.03;3.10;;;;;;;;;;4340842;32;317556;-68
2024/03/12 03:38:48;;;;;;;7.60;3.97;;;;;;;;;;4350597;32;317326;-70
2024/03/12 03:41:15;;;;;;;11.40;5.27;;;;;;;;;;4342388;32;317907;-72
2024/03/12 03:43:42;;;;;;;8.53;4.30;;;;;;;;;;4350903;32;318729;-68
2024/03/12 03:46:09;;;;;;;8.80;5.20;;;;;;;;;;4352100;32;317981;-70
2024/03/12 03:48:36;;;;;;;11.40;6.17;;;;;;;;;;4339743;32;317511;-69
2024/03/12 03:51:05;;;;;;;11.43;6.37;;;;;;;;;;4352177;32;317764;-69
2024/03/12 03:53:32;;;;;;;5.57;3.30;;;;;;;;;;4341915;32;318222;-69
2024/03/12 03:55:58;;;;;;;4.87;2.83;;;;;;;;;;4351189;32;317570;-69
2024/03/12 03:58:25;;;;;;;6.43;2.73;;;;;;;;;;4342420;32;317230;-70
2024/03/12 04:00:52;;;;;;;2.60;2.20;;;;;;;;;;4352449;32;317202;-70
2024/03/12 04:03:19;;;;;;;5.07;2.13;;;;;;;;;;4341246;32;316721;-70
2024/03/12 04:05:47;;;;;;;7.27;2.80;;;;;;;;;;4350597;32;342385;-69
2024/03/12 04:08:16;;;;;;;6.10;3.20;;;;;;;;;;4341405;32;317224;-69
2024/03/12 04:10:43;;;;;;;4.80;2.47;;;;;;;;;;4349302;32;317578;-69
2024/03/12 04:13:09;;;;;;;3.77;2.50;;;;;;;;;;4351083;32;317379;-69
2024/03/12 04:15:36;;;;;;;5.17;2.90;;;;;;;;;;4340791;32;356381;-69
2024/03/12 04:18:04;;;;;;;6.23;2.73;;;;;;;;;;4352337;32;317413;-69
2024/03/12 04:20:31;;;;;;;4.10;3.17;;;;;;;;;;4339664;32;316465;-69
2024/03/12 04:22:58;;;;;;;5.13;2.77;;;;;;;;;;4350742;32;317389;-69
2024/03/12 04:25:26;;;;;;;6.70;3.33;;;;;;;;;;4340664;32;325335;-69
2024/03/12 04:27:53;;;;;;;7.57;5.43;;;;;;;;;;4352009;32;317216;-70
2024/03/12 04:30:20;;;;;;;19.07;11.40;;;;;;;;;;4340723;32;317341;-69
2024/03/12 04:32:46;;;;;;;26.47;15.07;;;;;;;;;;4347878;32;348543;-68
2024/03/12 04:35:13;;;;;;;8.43;6.50;;;;;;;;;;4339306;32;395079;-69
2024/03/12 04:37:40;;;;;;;8.87;5.80;;;;;;;;;;4351904;32;316663;-71
2024/03/12 04:40:08;;;;;;;6.10;4.23;;;;;;;;;;4351056;32;317573;-69
2024/03/12 04:42:36;;;;;;;8.07;4.67;;;;;;;;;;4336910;32;351700;-69
2024/03/12 04:45:06;;;;;;;27.33;12.53;;;;;;;;;;4350808;32;340089;-69
2024/03/12 04:47:33;;;;;;;16.10;9.13;;;;;;;;;;4341913;32;319444;-69
2024/03/12 04:50:00;;;;;;;9.77;7.20;;;;;;;;;;4350622;32;318355;-68
2024/03/12 04:52:27;;;;;;;13.80;9.00;;;;;;;;;;4338960;32;335856;-69
2024/03/12 04:54:57;;;;;;;12.43;8.43;;;;;;;;;;4351772;32;318526;-69
2024/03/12 04:57:24;;;;;;;11.00;7.87;;;;;;;;;;4341337;32;335624;-69
2024/03/12 04:59:54;;;;;;;11.00;7.97;;;;;;;;;;4351137;32;317763;-69
2024/03/12 05:02:21;;;;;;;7.13;5.57;;;;;;;;;;4341370;32;318213;-70
2024/03/12 05:04:48;;;;;;;7.90;6.23;;;;;;;;;;4347825;32;317174;-68
2024/03/12 05:07:15;;;;;;;2.83;1.73;;;;;;;;;;4339450;32;317242;-68
2024/03/12 05:09:42;;;;;;;1.90;1.70;;;;;;;;;;4351520;32;317259;-68
2024/03/12 05:12:09;;;;;;;3.07;1.90;;;;;;;;;;4351458;32;317345;-69
2024/03/12 05:14:36;;;;;;;3.07;2.00;;;;;;;;;;4339461;32;317091;-70
2024/03/12 05:17:05;;;;;;;2.03;1.70;;;;;;;;;;4351103;32;317441;-69
2024/03/12 05:19:31;;;;;;;2.87;1.80;;;;;;;;;;4339900;32;333237;-70
2024/03/12 05:22:02;;;;;;;1.90;1.60;;;;;;;;;;4353408;32;316879;-68
2024/03/12 05:24:31;;;;;;;10.43;3.67;;;;;;;;;;4342133;32;317202;-68
2024/03/12 05:26:59;;;;;;;18.27;5.40;;;;;;;;;;4353298;32;318048;-68
2024/03/12 05:29:36;;;;;;;18.50;6.57;;;;;;;;;;4343889;32;317740;-71
2024/03/12 05:32:17;;;;;;;18.53;8.00;;;;;;;;;;4352345;32;318089;-68
2024/03/12 05:34:52;;;;;;;15.47;6.30;;;;;;;;;;4338915;32;417554;-70
2024/03/12 05:37:29;;;;;;;11.20;5.63;;;;;;;;;;4343135;32;318548;-69
2024/03/12 05:40:14;;;;;;;10.63;6.13;;;;;;;;;;4352674;32;318357;-67
2024/03/12 05:48:11;;;;;;;14.47;7.03;;;;;;;;;;4352987;32;317276;-70
2024/03/12 05:50:39;;;;;;;19.93;8.33;;;;;;;;;;4336566;32;418575;-68
2024/03/12 05:53:06;;;;;;;12.30;7.43;;;;;;;;;;4353032;32;318375;-68
2024/03/12 05:55:33;;;;;;;8.57;6.10;;;;;;;;;;4343423;32;318329;-68
2024/03/12 05:58:00;;;;;;;9.80;5.80;;;;;;;;;;4352714;32;317390;-68
2024/03/12 06:00:27;;;;;;;10.87;5.87;;;;;;;;;;4342211;32;317574;-68
2024/03/12 06:02:54;;;;;;;7.47;5.50;;;;;;;;;;4351620;32;358403;-71
2024/03/12 06:05:22;;;;;;;12.13;7.23;;;;;;;;;;4342440;32;317578;-70
2024/03/12 06:07:49;;;;;;;7.07;4.50;;;;;;;;;;4351009;32;317916;-71
2024/03/12 06:10:17;;;;;;;8.63;5.23;;;;;;;;;;4341206;32;317341;-69
2024/03/12 06:12:44;;;;;;;7.53;4.20;;;;;;;;;;4350526;32;317196;-68
2024/03/12 06:15:11;;;;;;;7.73;5.07;;;;;;;;;;4352030;32;317786;-69
2024/03/12 06:17:37;;;;;;;5.90;3.77;;;;;;;;;;4339628;32;418698;-71
2024/03/12 06:20:05;;;;;;;6.47;3.73;;;;;;;;;;4353222;32;317328;-70
2024/03/12 06:22:33;;;;;;;5.40;3.67;;;;;;;;;;4340974;32;317417;-69
2024/03/12 06:25:01;;;;;;;5.47;3.00;;;;;;;;;;4353328;32;317349;-71
2024/03/12 06:27:27;;;;;;;6.43;3.73;;;;;;;;;;4342515;32;317992;-69
2024/03/12 06:29:54;;;;;;;9.20;4.57;;;;;;;;;;4352271;32;317305;-69
2024/03/12 06:32:21;;;;;;;11.20;6.83;;;;;;;;;;4342477;32;317482;-70
2024/03/12 06:34:48;;;;;;;7.30;4.13;;;;;;;;;;4350502;32;318550;-69
2024/03/12 06:37:16;;;;;;;5.60;3.63;;;;;;;;;;4342697;32;317418;-70
2024/03/12 06:39:44;;;;;;;10.60;6.00;;;;;;;;;;4352526;32;317200;-70
2024/03/12 06:42:12;;;;;;;5.67;3.50;;;;;;;;;;4353003;32;318292;-72
2024/03/12 06:44:40;;;;;;;11.43;5.80;;;;;;;;;;4336486;32;418299;-70
2024/03/12 06:47:07;;;;;;;23.03;13.57;;;;;;;;;;4343855;32;317625;-72
2024/03/12 06:49:34;;;;;;;12.67;7.07;;;;;;;;;;4341403;32;319773;-71
2024/03/12 06:52:02;;;;;;;6.90;4.53;;;;;;;;;;4351624;32;317466;-68
2024/03/12 06:54:31;;;;;;;4.33;3.50;;;;;;;;;;4339803;32;317598;-68
2024/03/12 06:57:00;;;;;;;5.93;4.20;;;;;;;;;;4353138;32;317213;-70
2024/03/12 06:59:26;;;;;;;7.00;5.97;;;;;;;;;;4341434;32;317678;-68
2024/03/12 07:01:55;;;;;;;7.17;4.27;;;;;;;;;;4352683;32;317339;-68
2024/03/12 07:04:23;;;;;;;5.70;4.33;;;;;;;;;;4341436;32;317417;-70
2024/03/12 07:06:50;;;;;;;12.37;6.40;;;;;;;;;;4351635;32;317415;-69
2024/03/12 07:09:26;;;;;;;8.53;5.70;;;;;;;;;;4341622;32;319125;-72
2024/03/12 07:11:54;;;;;;;5.40;4.83;;;;;;;;;;4352105;32;332081;-69
2024/03/12 07:14:27;;;;;;;13.07;10.73;;;;;;;;;;4341577;32;317349;-69
2024/03/12 07:16:54;;;;;;;7.73;5.77;;;;;;;;;;4352434;32;319884;-71
2024/03/12 07:19:22;;;;;;;9.40;4.13;;;;;;;;;;4342417;32;317265;-69
2024/03/12 07:21:52;;;;;;;5.20;4.40;;;;;;;;;;4351220;32;317357;-69
2024/03/12 07:24:19;;;;;;;9.33;4.17;;;;;;;;;;4341094;32;317501;-69
2024/03/12 07:26:48;;;;;;;7.00;5.50;;;;;;;;;;4348969;32;317536;-69
2024/03/12 07:29:14;;;;;;;7.50;4.73;;;;;;;;;;4341264;32;358178;-70
2024/03/12 07:31:43;;;;;;;5.70;5.07;;;;;;;;;;4351702;32;316643;-69
2024/03/12 07:34:09;;;;;;;6.03;4.17;;;;;;;;;;4352030;32;317147;-70
2024/03/12 07:36:36;;;;;;;12.37;5.97;;;;;;;;;;4340158;32;317200;-69
2024/03/12 07:39:10;;;;;;;10.23;5.33;;;;;;;;;;4351931;32;317725;-71
2024/03/12 07:41:37;;;;;;;12.77;7.20;;;;;;;;;;4341693;32;337155;-71
2024/03/12 07:44:06;;;;;;;10.73;6.20;;;;;;;;;;4352466;32;318392;-69
2024/03/12 07:46:34;;;;;;;15.83;8.57;;;;;;;;;;4339494;32;337559;-69
2024/03/12 07:49:03;;;;;;;20.57;11.70;;;;;;;;;;4350799;32;317998;-70
2024/03/12 07:51:30;;;;;;;12.03;8.33;;;;;;;;;;4341370;32;319264;-70
2024/03/12 07:53:59;;;;;;;19.43;12.57;;;;;;;;;;4351790;32;318395;-72
2024/03/12 07:56:28;;;;;;;13.90;9.43;;;;;;;;;;4341601;32;319434;-70
2024/03/12 07:58:56;;;;;;;38.13;23.60;;;;;;;;;;4352145;32;318179;-69
2024/03/12 08:01:26;;;;;;;15.43;9.13;;;;;;;;;;4342040;32;319507;-69
2024/03/12 08:03:53;;;;;;;15.67;11.30;;;;;;;;;;4350904;32;318477;-69
2024/03/12 08:06:21;;;;;;;10.93;7.33;;;;;;;;;;4340629;32;319620;-69
2024/03/12 08:08:49;;;;;;;7.90;6.00;;;;;;;;;;4349772;32;318794;-71
2024/03/12 08:11:19;;;;;;;8.97;6.17;;;;;;;;;;4338283;32;344109;-69
2024/03/12 08:13:47;;;;;;;9.67;7.10;;;;;;;;;;4352198;32;317200;-70
2024/03/12 08:16:15;;;;;;;11.10;7.47;;;;;;;;;;4340640;32;317214;-70
2024/03/12 08:18:42;;;;;;;12.37;8.43;;;;;;;;;;4349319;32;317555;-70
2024/03/12 08:21:09;;;;;;;13.20;8.57;;;;;;;;;;4351690;32;318197;-71
2024/03/12 08:23:37;;;;;;;11.07;7.67;;;;;;;;;;4341071;32;318223;-70
2024/03/12 08:26:07;;;;;;;14.43;6.80;;;;;;;;;;4351140;32;318348;-69
2024/03/12 08:28:34;;;;;;;15.23;7.47;;;;;;;;;;4339826;32;318157;-69
2024/03/12 08:31:02;;;;;;;19.63;11.80;;;;;;;;;;4351534;32;318389;-69
2024/03/12 08:33:29;;;;;;;16.27;11.03;;;;;;;;;;4340501;32;318985;-69
2024/03/12 08:35:56;;;;;;;12.97;9.00;;;;;;;;;;4350215;32;318646;-69
2024/03/12 08:38:23;;;;;;;10.07;7.83;;;;;;;;;;4340343;32;331027;-69
2024/03/12 08:40:52;;;;;;;12.27;7.07;;;;;;;;;;4351175;32;318645;-70
2024/03/12 08:43:19;;;;;;;9.27;5.23;;;;;;;;;;4340520;32;318599;-70
2024/03/12 08:45:46;;;;;;;8.37;5.77;;;;;;;;;;4342884;32;316679;-70
2024/03/12 08:48:12;;;;;;;7.23;5.47;;;;;;;;;;4350237;32;320880;-69
2024/03/12 08:50:42;;;;;;;13.93;6.27;;;;;;;;;;4336580;32;416269;-71
2024/03/12 08:53:11;;;;;;;8.67;6.80;;;;;;;;;;4351769;32;318298;-71
2024/03/12 08:55:39;;;;;;;9.57;6.47;;;;;;;;;;4338338;32;416872;-70
2024/03/12 08:58:07;;;;;;;14.93;10.30;;;;;;;;;;4354423;32;317196;-70
2024/03/12 09:00:33;;;;;;;17.47;9.03;;;;;;;;;;4340953;32;345326;-69
2024/03/12 09:03:01;;;;;;;15.87;9.17;;;;;;;;;;4354175;32;317376;-70
2024/03/12 09:05:28;;;;;;;16.47;11.50;;;;;;;;;;4344415;32;317538;-69
2024/03/12 09:07:55;;;;;;;15.20;9.83;;;;;;;;;;4354005;32;319310;-72
2024/03/12 09:10:22;;;;;;;27.20;9.87;;;;;;;;;;4343835;32;318231;-69
2024/03/12 09:12:51;;;;;;;14.40;9.57;;;;;;;;;;4349771;32;318387;-69
2024/03/12 09:15:21;;;;;;;20.53;10.43;;;;;;;;;;4344079;32;318393;-69
2024/03/12 09:17:47;;;;;;;18.70;10.83;;;;;;;;;;4354028;32;319645;-70
2024/03/12 09:20:15;;;;;;;21.57;12.03;;;;;;;;;;4343720;32;318968;-72
2024/03/12 09:22:44;;;;;;;16.30;11.40;;;;;;;;;;4351057;32;318725;-69
2024/03/12 09:25:11;;;;;;;14.27;8.87;;;;;;;;;;4351461;32;354227;-71
2024/03/12 09:27:38;;;;;;;10.20;7.30;;;;;;;;;;4339951;32;419543;-71
2024/03/12 09:30:07;;;;;;;9.90;6.77;;;;;;;;;;4351099;32;346101;-69
2024/03/12 09:32:35;;;;;;;10.97;6.53;;;;;;;;;;4339590;32;347665;-69
2024/03/12 09:35:03;;;;;;;14.47;6.53;;;;;;;;;;4352587;32;318241;-69
2024/03/12 09:37:32;;;;;;;11.23;7.40;;;;;;;;;;4343498;32;319924;-69
2024/03/12 09:40:00;;;;;;;9.90;7.90;;;;;;;;;;4353486;32;318041;-69
2024/03/12 09:42:28;;;;;;;8.03;6.57;;;;;;;;;;4340635;32;316562;-69
2024/03/12 09:44:56;;;;;;;7.90;5.93;;;;;;;;;;4351904;32;316464;-69
2024/03/12 09:47:24;;;;;;;13.17;8.90;;;;;;;;;;4344183;32;317171;-70
2024/03/12 09:49:52;;;;;;;14.13;6.87;;;;;;;;;;4353675;32;318574;-69
2024/03/12 09:52:19;;;;;;;13.70;7.10;;;;;;;;;;4343741;32;318758;-67
2024/03/12 09:54:47;;;;;;;10.93;6.17;;;;;;;;;;4349846;32;318409;-71
2024/03/12 09:57:16;;;;;;;7.73;5.50;;;;;;;;;;4343191;32;317570;-69
2024/03/12 09:59:42;;;;;;;7.57;4.63;;;;;;;;;;4353113;32;317175;-71
2024/03/12 10:02:10;;;;;;;7.50;5.13;;;;;;;;;;4353253;32;316415;-68
2024/03/12 10:04:37;;;;;;;7.43;5.70;;;;;;;;;;4340023;32;329541;-69
2024/03/12 10:07:05;;;;;;;5.03;4.53;;;;;;;;;;4352971;32;317117;-69
2024/03/12 10:09:32;;;;;;;9.93;4.37;;;;;;;;;;4343402;32;316618;-69
2024/03/12 10:12:03;;;;;;;10.53;5.23;;;;;;;;;;4353115;32;316579;-69
2024/03/12 10:14:33;;;;;;;8.43;4.60;;;;;;;;;;4339510;32;317626;-69
2024/03/12 10:17:13;;;;;;;6.53;4.77;;;;;;;;;;4351750;32;316526;-69
2024/03/12 10:19:41;;;;;;;7.33;4.67;;;;;;;;;;4340241;32;416956;-71
2024/03/12 10:22:11;;;;;;;9.90;4.53;;;;;;;;;;4353108;32;317377;-72
2024/03/12 10:24:38;;;;;;;5.67;4.13;;;;;;;;;;4335892;32;418220;-68
2024/03/12 10:27:06;;;;;;;11.23;5.10;;;;;;;;;;4352453;32;316765;-70
2024/03/12 10:29:35;;;;;;;11.30;7.10;;;;;;;;;;4341053;32;317796;-69
2024/03/12 10:32:17;;;;;;;12.37;6.50;;;;;;;;;;4351553;32;318363;-70
2024/03/12 10:34:44;;;;;;;6.27;5.10;;;;;;;;;;4336497;32;417280;-69
2024/03/12 10:37:25;;;;;;;12.07;5.70;;;;;;;;;;4351888;32;316891;-71
2024/03/12 10:39:52;;;;;;;7.20;4.37;;;;;;;;;;4337831;32;417031;-72
2024/03/12 10:42:22;;;;;;;6.17;4.00;;;;;;;;;;4341710;32;322501;-69
2024/03/12 10:44:49;;;;;;;9.97;4.30;;;;;;;;;;4350550;32;324398;-71
2024/03/12 10:47:17;;;;;;;5.40;2.87;;;;;;;;;;4341747;32;317281;-71
2024/03/12 10:49:47;;;;;;;4.43;3.30;;;;;;;;;;4351512;32;353785;-70
2024/03/12 10:52:18;;;;;;;4.43;3.00;;;;;;;;;;4341554;32;317339;-70
2024/03/12 10:54:46;;;;;;;7.30;3.67;;;;;;;;;;4349988;32;317266;-71
2024/03/12 10:57:14;;;;;;;4.37;3.10;;;;;;;;;;4343140;32;317224;-70
2024/03/12 10:59:43;;;;;;;5.77;3.00;;;;;;;;;;4351199;32;317367;-70
2024/03/12 11:02:12;;;;;;;4.53;3.10;;;;;;;;;;4352970;32;316456;-72
2024/03/12 11:04:39;;;;;;;7.67;4.87;;;;;;;;;;4336492;32;416781;-69
2024/03/12 11:07:08;;;;;;;5.27;3.73;;;;;;;;;;4352902;32;317376;-70
2024/03/12 11:09:36;;;;;;;10.23;3.43;;;;;;;;;;4342027;32;317603;-71
2024/03/12 11:12:04;;;;;;;11.10;3.00;;;;;;;;;;4353019;32;318253;-70
2024/03/12 11:14:31;;;;;;;5.83;3.90;;;;;;;;;;4339275;32;318459;-69
2024/03/12 11:16:58;;;;;;;7.03;3.83;;;;;;;;;;4352185;32;317334;-69
2024/03/12 11:19:26;;;;;;;7.60;3.70;;;;;;;;;;4341896;32;317330;-71
2024/03/12 11:21:53;;;;;;;8.23;3.40;;;;;;;;;;4352829;32;316531;-72
2024/03/12 11:24:27;;;;;;;10.67;3.33;;;;;;;;;;4342692;32;317146;-70
2024/03/12 11:26:59;;;;;;;3.13;1.67;;;;;;;;;;4350954;32;318266;-71
2024/03/12 11:30:04;;;;;;;19.53;3.57;;;;;;;;;;4341358;32;317158;-69
2024/03/12 11:32:33;;;;;;;7.93;4.00;;;;;;;;;;4338806;32;318245;-72
2024/03/12 11:35:03;;;;;;;7.60;2.83;;;;;;;;;;4351141;32;317214;-69
2024/03/12 11:37:30;;;;;;;8.10;3.70;;;;;;;;;;4341585;32;317321;-71
2024/03/12 11:40:25;;;;;;;11.07;3.17;;;;;;;;;;4350477;32;317852;-70
2024/03/12 11:42:55;;;;;;;11.30;3.70;;;;;;;;;;4338027;32;419598;-69
2024/03/12 11:45:45;;;;;;;11.57;3.27;;;;;;;;;;4341352;32;318144;-68
2024/03/12 11:48:13;;;;;;;4.87;3.72;;;;;;;;;;4352499;32;317552;-71
2024/03/12 11:50:42;;;;;;;7.57;3.67;;;;;;;;;;4335917;32;417367;-69
2024/03/12 11:53:18;;;;;;;11.03;4.97;;;;;;;;;;4351199;32;317660;-70
2024/03/12 11:55:59;;;;;;;3.57;1.83;;;;;;;;;;4338598;32;419271;-69
2024/03/12 11:58:31;;;;;;;2.43;1.30;;;;;;;;;;4339449;32;316884;-70
2024/03/12 12:00:58;;;;;;;4.12;2.08;;;;;;;;;;4350975;32;317470;-70
2024/03/12 12:03:25;;;;;;;10.47;3.30;;;;;;;;;;4341245;32;317444;-71
2024/03/12 12:05:52;;;;;;;4.70;2.33;;;;;;;;;;4350219;32;346543;-70
2024/03/12 12:08:19;;;;;;;4.83;2.43;;;;;;;;;;4339638;32;357220;-70
2024/03/12 12:11:00;;;;;;;4.07;2.13;;;;;;;;;;4348400;32;316706;-71
2024/03/12 12:13:29;;;;;;;3.50;2.40;;;;;;;;;;4341565;32;317101;-70
2024/03/12 12:15:56;;;;;;;4.30;2.70;;;;;;;;;;4350818;32;320831;-69
2024/03/12 12:18:25;;;;;;;6.23;4.57;;;;;;;;;;4342207;32;317321;-72
2024/03/12 12:20:53;;;;;;;2.77;2.23;;;;;;;;;;4351905;32;317259;-70
2024/03/12 12:23:21;;;;;;;5.40;3.90;;;;;;;;;;4341067;32;317308;-72
2024/03/12 12:25:49;;;;;;;2.65;1.98;;;;;;;;;;4351730;32;317328;-70
2024/03/12 12:28:18;;;;;;;4.80;2.00;;;;;;;;;;4342419;32;317149;-69
2024/03/12 12:30:46;;;;;;;1.17;0.90;;;;;;;;;;4349728;32;317421;-71
2024/03/12 12:33:14;;;;;;;16.17;8.70;;;;;;;;;;4352757;32;339872;-70
2024/03/12 12:35:43;;;;;;;2.93;1.77;;;;;;;;;;4342277;32;417720;-71
2024/03/12 12:38:11;;;;;;;4.10;2.53;;;;;;;;;;4353400;32;316761;-71
2024/03/12 12:40:39;;;;;;;13.33;9.20;;;;;;;;;;4338088;32;416984;-70
2024/03/12 12:43:13;;;;;;;3.03;2.03;;;;;;;;;;4353615;32;318137;-72
2024/03/12 12:45:44;;;;;;;1.87;1.33;;;;;;;;;;4341222;32;415504;-70
2024/03/12 12:48:12;;;;;;;3.50;1.80;;;;;;;;;;4353956;32;317483;-71
2024/03/12 12:50:39;;;;;;;2.80;1.47;;;;;;;;;;4339147;32;416484;-71
2024/03/12 12:53:08;;;;;;;1.97;1.40;;;;;;;;;;4353312;32;316545;-70
2024/03/12 12:55:37;;;;;;;3.33;2.00;;;;;;;;;;4343503;32;317253;-70
2024/03/12 12:58:06;;;;;;;5.00;2.90;;;;;;;;;;4354634;32;316535;-70
2024/03/12 13:00:36;;;;;;;3.15;2.05;;;;;;;;;;4342591;32;317525;-70
2024/03/12 13:03:17;;;;;;;4.43;2.57;;;;;;;;;;4353832;32;317221;-71
2024/03/12 13:05:44;;;;;;;6.70;3.00;;;;;;;;;;4342068;32;416777;-70
2024/03/12 13:08:21;;;;;;;4.70;3.07;;;;;;;;;;4352546;32;352364;-72
2024/03/12 13:11:00;;;;;;;12.70;4.07;;;;;;;;;;4339390;32;418548;-71
2024/03/12 13:13:27;;;;;;;8.63;4.17;;;;;;;;;;4343599;32;318508;-70
2024/03/12 13:15:54;;;;;;;9.93;4.17;;;;;;;;;;4353337;32;317389;-71
2024/03/12 13:18:22;;;;;;;10.40;4.67;;;;;;;;;;4343343;32;317202;-70
2024/03/12 13:20:50;;;;;;;9.27;4.47;;;;;;;;;;4350674;32;318485;-69
2024/03/12 13:23:17;;;;;;;9.07;3.93;;;;;;;;;;4344613;32;317389;-73
2024/03/12 13:25:45;;;;;;;8.23;4.27;;;;;;;;;;4354688;32;316463;-70
2024/03/12 13:28:15;;;;;;;9.40;4.37;;;;;;;;;;4353799;32;316461;-71
2024/03/12 13:30:42;;;;;;;9.50;5.83;;;;;;;;;;4339488;32;416185;-70
2024/03/12 13:33:09;;;;;;;9.20;5.53;;;;;;;;;;4354194;32;317320;-70
2024/03/12 13:35:39;;;;;;;12.13;6.10;;;;;;;;;;4342767;32;317452;-70
2024/03/12 13:38:06;;;;;;;16.10;7.00;;;;;;;;;;4354088;32;318071;-71
2024/03/12 13:40:33;;;;;;;13.07;7.77;;;;;;;;;;4341851;32;318069;-71
2024/03/12 13:42:59;;;;;;;8.17;6.27;;;;;;;;;;4353569;32;317412;-70
2024/03/12 13:45:26;;;;;;;9.83;5.40;;;;;;;;;;4344431;32;317376;-70
2024/03/12 13:47:54;;;;;;;6.00;3.73;;;;;;;;;;4354019;32;316395;-70
2024/03/12 13:50:21;;;;;;;7.20;2.53;;;;;;;;;;4343894;32;316544;-70
2024/03/12 13:52:50;;;;;;;5.77;3.43;;;;;;;;;;4350122;32;316617;-70
2024/03/12 13:55:17;;;;;;;9.47;3.87;;;;;;;;;;4341591;32;321672;-71
2024/03/12 13:57:45;;;;;;;4.27;3.30;;;;;;;;;;4353393;32;316493;-70
2024/03/12 14:00:13;;;;;;;5.23;3.17;;;;;;;;;;4352818;32;318294;-70
2024/03/12 14:02:40;;;;;;;5.90;3.77;;;;;;;;;;4337715;32;418237;-70
2024/03/12 14:05:08;;;;;;;20.90;8.33;;;;;;;;;;4340819;32;316779;-70
2024/03/12 14:07:35;;;;;;;15.30;7.13;;;;;;;;;;4349749;32;317939;-70
2024/03/12 14:10:07;;;;;;;5.27;3.30;;;;;;;;;;4352376;32;317666;-70
2024/03/12 14:12:35;;;;;;;7.87;4.50;;;;;;;;;;4340300;32;416399;-69
2024/03/12 14:15:02;;;;;;;10.67;3.40;;;;;;;;;;4352790;32;317242;-71
2024/03/12 14:17:29;;;;;;;4.10;2.27;;;;;;;;;;4337665;32;417529;-71
2024/03/12 14:19:56;;;;;;;4.63;2.07;;;;;;;;;;4352745;32;317471;-71
2024/03/12 14:22:23;;;;;;;3.97;2.17;;;;;;;;;;4344037;32;317309;-68
2024/03/12 14:24:50;;;;;;;5.10;2.73;;;;;;;;;;4353760;32;317381;-68
2024/03/12 14:27:18;;;;;;;5.83;3.00;;;;;;;;;;4340318;32;317827;-72
2024/03/12 14:29:45;;;;;;;13.70;6.30;;;;;;;;;;4353670;32;317353;-69
2024/03/12 14:32:12;;;;;;;6.50;2.53;;;;;;;;;;4341886;32;340926;-68
2024/03/12 14:34:39;;;;;;;2.07;1.40;;;;;;;;;;4353216;32;317428;-69
2024/03/12 14:37:06;;;;;;;7.77;6.03;;;;;;;;;;4343740;32;317606;-69
2024/03/12 14:39:33;;;;;;;14.90;10.50;;;;;;;;;;4351875;32;317562;-68